William P Hobby Airport
KHOU : now visible

Airfield :











YOU CAN JOIN US ON...

 
LOGIN :

Register | Disclaimer

   EN    FR    IT 

 









Legend :    VFR   Marginal VFR   IFR   Intensive IFR   Very Intensive IFR
Visi :
Ceiling :
>= 8 km
>= 3000ft
5 to 8 km
1000 to 3000 ft
1500m to 5 km
500 to 1000 ft
800 to 1500m
200 to 500 ft
< 800m
< 200 ft
Symbols :   Thunderstorms  Fog  Heavy snow  Heavy precipitations  Wind > 20 kt






- Airport Elevation : 46 ft
- IATA code : HOU


KHOU - William P Hobby

CURRENT METAR :
  • 031353Z 27007KT 10SM FEW250 28/24 A3002 RMK AO2 SLP170 T02830244

EXPIRED METARs :
  • 031253Z 29004KT 10SM FEW250 27/24 A3000 RMK AO2 SLP164 T02670239
  • 031153Z 00000KT 10SM FEW030 FEW250 25/23 A2999 RMK AO2 SLP159 70026 T02500233 10261 20244 53008

TAF KHOU
Valid from the 03 at 12:00 until the 04 at 12:00 UTC


031124Z 0312/0412 VRB04KT P6SM FEW250
FM031500 27005KT P6SM FEW050 SCT250
FM032100 17005KT P6SM VCTS SCT050CB SCT250
FM040000 19004KT P6SM SCT050 BKN120
KZHU FIR / North America



MET'MAP, your aeronautical weather chart ! - Copyright ORBIFLY December 2007 - Disclaimer

ORBIFLY MET'MAP TEAM :

Programming & Development : Alexandra Zaïnal
Concept & original design : Baudouin d'Aumeries
Assistance for programming : Marc-Olivier Méhu
Technical & hardware support : Manuel Goepfert

Contact : metmap@orbifly.com




SOURCES & CREDITS :

   NOAA       Earth
Advisory